createdAt,value
2018-04-30T00:02:34.481Z,94573.57
2018-04-30T00:17:35.710Z,94570.72
2018-04-30T00:32:34.814Z,94571.58
2018-04-30T00:47:34.881Z,94581.36
2018-04-30T01:02:34.615Z,94577.54
2018-04-30T01:17:37.533Z,94575.19
2018-04-30T01:32:34.906Z,94562.08
2018-04-30T01:47:35.059Z,94562.06
2018-04-30T02:02:37.082Z,94560.45
2018-04-30T02:17:34.308Z,94555.88
2018-04-30T02:32:34.480Z,94551.26
2018-04-30T02:47:33.759Z,94545.91
2018-04-30T03:02:34.158Z,94549.70
2018-04-30T03:17:35.393Z,94559.86
2018-04-30T03:47:36.808Z,94569.05
2018-04-30T04:02:47.019Z,94579.88
2018-04-30T04:17:37.862Z,94582.69
2018-04-30T04:32:37.822Z,94583.11
2018-04-30T04:47:36.985Z,94586.86
2018-04-30T05:02:36.951Z,94603.49
2018-04-30T05:17:36.068Z,94604.36
2018-04-30T05:32:34.420Z,94596.21
2018-04-30T05:47:35.352Z,94594.30
2018-04-30T06:02:34.398Z,94597.91
2018-04-30T06:17:36.773Z,94610.78
2018-04-30T06:32:34.677Z,94614.14
2018-04-30T07:02:35.161Z,94603.77
2018-04-30T07:17:36.484Z,94583.83
2018-04-30T07:32:37.216Z,94576.09
2018-04-30T07:47:36.907Z,94570.94
2018-04-30T08:17:34.298Z,94545.57
2018-04-30T08:32:35.166Z,94534.59
2018-04-30T08:47:37.378Z,94504.31
2018-04-30T15:02:34.937Z,94262.00
2018-04-30T15:17:34.499Z,94251.69
2018-04-30T15:32:34.149Z,94246.86
2018-04-30T15:47:37.277Z,94239.70
2018-04-30T16:02:34.329Z,94231.36
2018-04-30T16:17:35.096Z,94236.36
2018-04-30T16:32:34.559Z,94249.91
2018-04-30T16:47:34.486Z,94271.51
2018-04-30T17:02:32.789Z,94289.19
2018-04-30T17:17:36.601Z,94297.10
2018-04-30T17:32:35.059Z,94316.88
2018-04-30T17:47:37.099Z,94326.52
2018-04-30T18:02:36.430Z,94328.16
2018-04-30T18:17:34.679Z,94336.88
2018-04-30T18:32:34.373Z,94340.16
2018-04-30T18:47:34.673Z,94345.37
2018-04-30T19:02:34.226Z,94354.57
2018-04-30T19:17:34.711Z,94359.55
2018-04-30T19:32:36.754Z,94370.77
2018-04-30T19:47:35.177Z,94380.22
2018-04-30T20:02:34.557Z,94389.43
2018-04-30T20:17:35.914Z,94381.43
2018-04-30T20:32:35.071Z,94396.92
2018-04-30T20:47:35.063Z,94389.58
2018-04-30T21:02:35.010Z,94393.73
2018-04-30T21:17:35.153Z,94402.94
2018-04-30T21:32:34.189Z,94420.60
2018-04-30T21:47:34.724Z,94434.23
2018-04-30T22:02:33.883Z,94443.19
2018-04-30T22:17:34.974Z,94451.23
2018-04-30T22:32:34.714Z,94447.73
2018-04-30T22:47:34.438Z,94449.52
2018-04-30T23:02:34.189Z,94438.42
2018-04-30T23:17:34.869Z,94422.59
2018-04-30T23:32:34.289Z,94414.21
2018-04-30T23:47:34.742Z,94415.58
